Tabellarische Übersicht vom Montag, den 08.08.2022

Oder anderes Datum wählen:






max 24,5°C 94,0% 12,5°C 1024,9hPa 23,0°C 16,2km/h (3Bft) 7,9km/h 360° (N) ∑0,0l/m² 80,000klx ∑0,0min
min 10,8°C 42,0% 9,8°C 1023,0hPa 11,0°C 0,0km/h (0Bft) 0,0km/h 3° (N) ∑0,0l/m² 0,000klx ∑0,0min
Ø 15,1°C 77,0% 10,7°C 1023,9hPa 15,0°C 4,2km/h (1Bft) 2,1km/h 143° (SO) ∑0,0l/m² 32,000klx ∑0,0min
Zeit Temperatur Luftfeuchte Taupunkt Luftdruck Windchill Windböen Windgeschwindigkeit Windrichtung Regen Helligkeit Regenzeit
12:10 24,5°C 41,8% 10,7°C 1024,8hPa 24,1°C 16,2km/h (3Bft) 7,9km/h 23° (NO) 0,0l/m² 80,459klx 0,0min
12:05 24,3°C 41,5% 10,4°C 1024,7hPa 24,3°C 16,2km/h (3Bft) 6,0km/h 44° (NO) 0,0l/m² 78,567klx 0,0min
12:00 24,2°C 43,3% 11,0°C 1024,8hPa 24,2°C 15,5km/h (3Bft) 6,3km/h 26° (NO) 0,0l/m² 74,718klx 0,0min
11:55 24,1°C 43,6% 10,9°C 1024,8hPa 24,1°C 9,7km/h (2Bft) 5,0km/h 41° (NO) 0,0l/m² 72,262klx 0,0min
11:50 23,9°C 45,1% 11,3°C 1024,8hPa 23,9°C 11,2km/h (2Bft) 6,3km/h 43° (NO) 0,0l/m² 72,602klx 0,0min
11:45 24,2°C 45,4% 11,6°C 1024,8hPa 24,1°C 13,3km/h (3Bft) 6,5km/h 359° (N) 0,0l/m² 76,026klx 0,0min
11:40 23,9°C 45,1% 11,3°C 1024,8hPa 23,9°C 8,6km/h (2Bft) 3,8km/h 16° (N) 0,0l/m² 78,317klx 0,0min
11:35 23,7°C 45,4% 11,2°C 1024,8hPa 23,7°C 9,4km/h (2Bft) 4,3km/h 336° (NW) 0,0l/m² 78,190klx 0,0min
11:30 23,4°C 46,0% 11,1°C 1024,8hPa 23,2°C 13,7km/h (3Bft) 7,0km/h 6° (N) 0,0l/m² 74,635klx 0,0min
11:25 23,1°C 47,1% 11,2°C 1024,8hPa 23,1°C 13,3km/h (3Bft) 6,5km/h 10° (N) 0,0l/m² 71,625klx 0,0min
11:20 23,3°C 47,8% 11,6°C 1024,8hPa 23,3°C 13,0km/h (3Bft) 5,4km/h 329° (NW) 0,0l/m² 70,407klx 0,0min
11:15 23,4°C 49,0% 12,1°C 1024,8hPa 23,4°C 14,0km/h (3Bft) 6,1km/h 356° (N) 0,0l/m² 70,739klx 0,0min
11:10 23,0°C 49,6% 11,8°C 1024,8hPa 23,0°C 14,0km/h (3Bft) 6,4km/h 329° (NW) 0,0l/m² 68,342klx 0,0min
11:05 22,6°C 50,3% 11,7°C 1024,8hPa 22,6°C 11,5km/h (2Bft) 5,1km/h 336° (NW) 0,0l/m² 67,212klx 0,0min
11:00 22,7°C 49,8% 11,7°C 1024,8hPa 22,7°C 15,5km/h (3Bft) 6,1km/h 329° (NW) 0,0l/m² 63,664klx 0,0min
10:55 22,7°C 49,9% 11,7°C 1024,8hPa 22,7°C 13,3km/h (3Bft) 6,0km/h 20° (N) 0,0l/m² 61,460klx 0,0min
10:50 22,9°C 49,6% 11,8°C 1024,8hPa 22,9°C 10,8km/h (2Bft) 4,1km/h 350° (N) 0,0l/m² 59,205klx 0,0min
10:45 22,8°C 50,5% 12,0°C 1024,8hPa 22,8°C 9,0km/h (2Bft) 3,9km/h 17° (N) 0,0l/m² 59,383klx 0,0min
10:40 22,2°C 50,5% 11,4°C 1024,8hPa 22,2°C 10,1km/h (2Bft) 5,0km/h 6° (N) 0,0l/m² 60,228klx 0,0min
10:35 22,1°C 50,6% 11,4°C 1024,9hPa 22,1°C 11,5km/h (2Bft) 4,7km/h 29° (NO) 0,0l/m² 60,074klx 0,0min
10:30 22,1°C 50,0% 11,2°C 1024,9hPa 22,1°C 9,0km/h (2Bft) 5,1km/h 26° (NO) 0,0l/m² 59,272klx 0,0min
10:25 22,0°C 53,2% 12,0°C 1024,8hPa 22,0°C 9,4km/h (2Bft) 4,5km/h 38° (NO) 0,0l/m² 58,384klx 0,0min
10:20 21,6°C 53,7% 11,8°C 1024,8hPa 21,6°C 9,7km/h (2Bft) 5,1km/h 6° (N) 0,0l/m² 56,477klx 0,0min
10:15 21,5°C 54,0% 11,8°C 1024,8hPa 21,5°C 11,5km/h (2Bft) 6,0km/h 19° (N) 0,0l/m² 53,774klx 0,0min
10:10 21,3°C 55,6% 12,0°C 1024,8hPa 21,3°C 9,0km/h (2Bft) 4,5km/h 354° (N) 0,0l/m² 52,449klx 0,0min
10:05 21,0°C 55,9% 11,9°C 1024,8hPa 21,0°C 11,5km/h (2Bft) 5,4km/h 14° (N) 0,0l/m² 51,032klx 0,0min
10:00 21,0°C 58,2% 12,5°C 1024,8hPa 21,0°C 10,1km/h (2Bft) 3,9km/h 11° (N) 0,0l/m² 48,790klx 0,0min
09:55 20,5°C 59,2% 12,3°C 1024,8hPa 20,5°C 9,7km/h (2Bft) 4,7km/h 17° (N) 0,0l/m² 47,167klx 0,0min
09:50 20,2°C 59,0% 11,9°C 1024,7hPa 20,2°C 6,8km/h (2Bft) 2,9km/h 8° (N) 0,0l/m² 45,551klx 0,0min
09:45 20,1°C 59,3% 11,9°C 1024,7hPa 20,1°C 5,8km/h (1Bft) 2,5km/h 58° (NO) 0,0l/m² 40,982klx 0,0min
09:40 20,0°C 59,3% 11,8°C 1024,7hPa 20,0°C 9,4km/h (2Bft) 5,1km/h 26° (NO) 0,0l/m² 42,724klx 0,0min
09:35 19,7°C 59,8% 11,7°C 1024,7hPa 19,7°C 9,4km/h (2Bft) 4,2km/h 40° (NO) 0,0l/m² 41,444klx 0,0min
09:30 19,6°C 61,9% 12,1°C 1024,6hPa 19,6°C 6,8km/h (2Bft) 3,2km/h 15° (N) 0,0l/m² 38,970klx 0,0min
09:25 19,2°C 63,4% 12,1°C 1024,6hPa 19,2°C 8,6km/h (2Bft) 3,9km/h 15° (N) 0,0l/m² 37,928klx 0,0min
09:20 18,8°C 63,8% 11,8°C 1024,6hPa 18,8°C 6,1km/h (2Bft) 2,8km/h 29° (NO) 0,0l/m² 36,171klx 0,0min
09:15 18,4°C 64,7% 11,6°C 1024,5hPa 18,4°C 7,9km/h (2Bft) 4,0km/h 40° (NO) 0,0l/m² 34,422klx 0,0min
09:10 18,6°C 66,0% 12,1°C 1024,5hPa 18,6°C 7,9km/h (2Bft) 3,3km/h 62° (NO) 0,0l/m² 32,817klx 0,0min
09:05 18,5°C 67,1% 12,3°C 1024,4hPa 18,5°C 7,2km/h (2Bft) 3,9km/h 13° (N) 0,0l/m² 31,493klx 0,0min
09:00 17,9°C 69,9% 12,3°C 1024,4hPa 17,9°C 5,8km/h (1Bft) 3,0km/h 203° (SW) 0,0l/m² 30,008klx 0,0min
08:55 17,5°C 70,5% 12,0°C 1024,4hPa 17,5°C 4,7km/h (1Bft) 2,8km/h 12° (N) 0,0l/m² 28,493klx 0,0min
08:50 17,0°C 72,6% 12,0°C 1024,4hPa 17,0°C 5,0km/h (1Bft) 2,4km/h 108° (O) 0,0l/m² 29,137klx 0,0min
08:45 16,3°C 75,4% 11,9°C 1024,4hPa 16,3°C 6,1km/h (2Bft) 2,2km/h 343° (N) 0,0l/m² 27,357klx 0,0min
08:40 15,7°C 76,6% 11,6°C 1024,5hPa 15,7°C 7,9km/h (2Bft) 3,9km/h 24° (NO) 0,0l/m² 25,462klx 0,0min
08:35 15,2°C 77,8% 11,3°C 1024,5hPa 15,2°C 8,3km/h (2Bft) 4,7km/h 22° (N) 0,0l/m² 23,578klx 0,0min
08:30 15,0°C 78,2% 11,2°C 1024,4hPa 15,0°C 5,4km/h (1Bft) 2,9km/h 9° (N) 0,0l/m² 22,170klx 0,0min
08:25 14,5°C 81,0% 11,2°C 1024,3hPa 14,5°C 6,1km/h (2Bft) 3,5km/h 7° (N) 0,0l/m² 19,837klx 0,0min
08:20 14,3°C 82,2% 11,3°C 1024,2hPa 14,3°C 6,8km/h (2Bft) 4,5km/h 3° (N) 0,0l/m² 18,163klx 0,0min
08:15 14,0°C 84,3% 11,4°C 1024,2hPa 14,0°C 6,5km/h (2Bft) 4,3km/h 11° (N) 0,0l/m² 18,340klx 0,0min
08:10 13,7°C 85,2% 11,3°C 1024,2hPa 13,7°C 6,5km/h (2Bft) 3,5km/h 360° (N) 0,0l/m² 17,216klx 0,0min
08:05 13,4°C 86,5% 11,2°C 1024,1hPa 13,4°C 6,5km/h (2Bft) 3,5km/h 360° (N) 0,0l/m² 15,905klx 0,0min
08:00 13,0°C 88,7% 11,2°C 1024,1hPa 13,0°C 6,8km/h (2Bft) 3,3km/h 329° (NW) 0,0l/m² 14,856klx 0,0min
07:55 12,9°C 88,9% 11,1°C 1024,1hPa 12,9°C 2,9km/h (1Bft) 1,6km/h 305° (NW) 0,0l/m² 12,896klx 0,0min
07:50 12,7°C 88,0% 10,8°C 1024,0hPa 12,7°C 1,1km/h (0Bft) 0,9km/h 244° (SW) 0,0l/m² 12,703klx 0,0min
07:45 12,5°C 88,1% 10,5°C 1024,0hPa 12,5°C 0,0km/h (0Bft) 0,0km/h - 0,0l/m² 11,763klx 0,0min
07:40 12,2°C 88,6% 10,4°C 1024,0hPa 12,2°C 0,0km/h (0Bft) 0,0km/h - 0,0l/m² 11,050klx 0,0min
07:35 12,0°C 89,3% 10,2°C 1024,0hPa 12,0°C 1,1km/h (0Bft) 0,8km/h 229° (SW) 0,0l/m² 10,133klx 0,0min
07:30 11,7°C 90,7% 10,2°C 1024,0hPa 11,7°C 2,2km/h (1Bft) 1,3km/h 196° (S) 0,0l/m² 7,515klx 0,0min
07:25 11,4°C 91,8% 10,1°C 1024,1hPa 11,4°C 2,9km/h (1Bft) 1,7km/h 173° (S) 0,0l/m² 5,718klx 0,0min
07:20 11,4°C 92,6% 10,2°C 1024,1hPa 11,4°C 2,9km/h (1Bft) 1,4km/h 211° (SW) 0,0l/m² 5,446klx 0,0min
07:15 11,3°C 93,3% 10,3°C 1024,1hPa 11,3°C 1,1km/h (0Bft) 0,8km/h 208° (SW) 0,0l/m² 5,083klx 0,0min
07:10 11,2°C 93,2% 10,2°C 1024,1hPa 11,2°C 2,2km/h (1Bft) 1,2km/h 202° (S) 0,0l/m² 4,722klx 0,0min
07:05 11,2°C 93,3% 10,2°C 1024,1hPa 11,2°C 2,9km/h (1Bft) 1,5km/h 213° (SW) 0,0l/m² 4,338klx 0,0min
07:00 11,1°C 94,4% 10,2°C 1024,0hPa 11,1°C 2,9km/h (1Bft) 1,2km/h 222° (SW) 0,0l/m² 3,966klx 0,0min
06:55 11,0°C 93,9% 10,0°C 1024,0hPa 11,0°C 2,5km/h (1Bft) 1,3km/h 234° (SW) 0,0l/m² 3,618klx 0,0min
06:50 11,0°C 94,3% 10,1°C 1023,9hPa 11,0°C 2,2km/h (1Bft) 1,2km/h 239° (SW) 0,0l/m² 3,268klx 0,0min
06:45 10,8°C 93,7% 9,9°C 1023,9hPa 10,8°C 1,8km/h (0Bft) 1,0km/h 223° (SW) 0,0l/m² 2,920klx 0,0min
06:40 10,8°C 93,9% 9,9°C 1023,9hPa 10,8°C 2,5km/h (1Bft) 1,2km/h 222° (SW) 0,0l/m² 2,561klx 0,0min
06:35 10,8°C 93,5% 9,8°C 1023,9hPa 10,8°C 1,4km/h (0Bft) 1,0km/h 238° (SW) 0,0l/m² 2,206klx 0,0min
06:30 10,9°C 93,5% 9,8°C 1023,9hPa 10,9°C 1,1km/h (0Bft) 0,8km/h 235° (SW) 0,0l/m² 1,853klx 0,0min
06:25 10,8°C 93,3% 9,8°C 1023,9hPa 10,8°C 1,4km/h (0Bft) 0,9km/h 238° (SW) 0,0l/m² 1,504klx 0,0min
06:20 10,9°C 93,5% 9,8°C 1023,8hPa 10,9°C 1,8km/h (0Bft) 1,0km/h 244° (SW) 0,0l/m² 1,171klx 0,0min
06:15 10,9°C 93,5% 9,9°C 1023,8hPa 10,9°C 1,4km/h (0Bft) 1,1km/h 245° (SW) 0,0l/m² 0,876klx 0,0min
06:10 10,9°C 94,0% 10,0°C 1023,8hPa 10,9°C 1,1km/h (0Bft) 0,9km/h 230° (SW) 0,0l/m² 0,621klx 0,0min
06:05 10,9°C 94,0% 9,9°C 1023,7hPa 10,9°C 0,0km/h (0Bft) 0,0km/h - 0,0l/m² 0,414klx 0,0min
06:00 10,9°C 93,7% 9,9°C 1023,7hPa 10,9°C 2,9km/h (1Bft) 1,2km/h 249° (W) 0,0l/m² 0,256klx 0,0min
05:55 11,0°C 93,7% 10,0°C 1023,6hPa 11,0°C 1,1km/h (0Bft) 1,1km/h 276° (W) 0,0l/m² 0,146klx 0,0min
05:50 11,0°C 93,3% 9,9°C 1023,6hPa 11,0°C 1,1km/h (0Bft) 0,9km/h 291° (W) 0,0l/m² 0,075klx 0,0min
05:45 11,0°C 92,9% 9,9°C 1023,5hPa 11,0°C 1,8km/h (0Bft) 1,1km/h 265° (W) 0,0l/m² 0,036klx 0,0min
05:40 11,1°C 92,8% 10,0°C 1023,5hPa 11,1°C 0,0km/h (0Bft) 0,0km/h - 0,0l/m² 0,017klx 0,0min
05:35 11,1°C 92,6% 9,9°C 1023,4hPa 11,1°C 1,1km/h (0Bft) 0,9km/h 288° (W) 0,0l/m² 0,008klx 0,0min
05:30 11,1°C 92,5% 10,0°C 1023,4hPa 11,1°C 1,8km/h (0Bft) 1,1km/h 253° (W) 0,0l/m² 0,004klx 0,0min
05:25 11,2°C 92,4% 10,0°C 1023,4hPa 11,2°C 0,0km/h (0Bft) 0,0km/h - 0,0l/m² 0,002klx 0,0min
05:20 11,2°C 92,3% 10,0°C 1023,4hPa 11,2°C 0,0km/h (0Bft) 0,0km/h - 0,0l/m² 0,001klx 0,0min
05:15 11,2°C 92,2% 10,0°C 1023,3hPa 11,2°C 0,0km/h (0Bft) 0,0km/h - 0,0l/m² 0,001klx 0,0min
05:10 11,2°C 92,1% 10,0°C 1023,3hPa 11,2°C 1,4km/h (0Bft) 0,9km/h 237° (SW) 0,0l/m² 0,000klx 0,0min
05:05 11,2°C 91,6% 9,9°C 1023,3hPa 11,2°C 2,2km/h (1Bft) 1,1km/h 233° (SW) 0,0l/m² 0,000klx 0,0min
05:00 11,3°C 91,5% 9,9°C 1023,3hPa 11,3°C 1,1km/h (0Bft) 1,1km/h 273° (W) 0,0l/m² 0,000klx 0,0min
04:55 11,4°C 91,4% 10,0°C 1023,3hPa 11,4°C 1,1km/h (0Bft) 1,0km/h 250° (W) 0,0l/m² 0,000klx 0,0min
04:50 11,4°C 91,6% 10,1°C 1023,3hPa 11,4°C 1,1km/h (0Bft) 0,9km/h 252° (W) 0,0l/m² 0,000klx 0,0min
04:45 11,5°C 91,2% 10,1°C 1023,3hPa 11,5°C 1,4km/h (0Bft) 1,0km/h 240° (SW) 0,0l/m² 0,000klx 0,0min
04:40 11,6°C 90,5% 10,1°C 1023,3hPa 11,6°C 1,8km/h (0Bft) 1,0km/h 247° (SW) 0,0l/m² 0,000klx 0,0min
04:35 11,6°C 90,2% 10,1°C 1023,3hPa 11,6°C 1,8km/h (0Bft) 1,1km/h 244° (SW) 0,0l/m² 0,000klx 0,0min
04:30 11,7°C 90,1% 10,1°C 1023,3hPa 11,7°C 0,0km/h (0Bft) 0,0km/h - 0,0l/m² 0,000klx 0,0min
04:25 11,7°C 89,8% 10,1°C 1023,4hPa 11,7°C 2,5km/h (1Bft) 1,2km/h 209° (SW) 0,0l/m² 0,000klx 0,0min
04:20 11,8°C 89,8% 10,1°C 1023,4hPa 11,8°C 2,2km/h (1Bft) 1,0km/h 237° (SW) 0,0l/m² 0,000klx 0,0min
04:15 11,9°C 88,9% 10,1°C 1023,4hPa 11,9°C 1,4km/h (0Bft) 1,0km/h 244° (SW) 0,0l/m² 0,000klx 0,0min
04:10 12,0°C 88,5% 10,2°C 1023,4hPa 12,0°C 2,9km/h (1Bft) 1,5km/h 162° (S) 0,0l/m² 0,000klx 0,0min
04:05 12,1°C 88,5% 10,2°C 1023,3hPa 12,1°C 3,2km/h (1Bft) 1,4km/h 140° (SO) 0,0l/m² 0,000klx 0,0min
04:00 12,1°C 88,8% 10,3°C 1023,3hPa 12,1°C 1,1km/h (0Bft) 0,9km/h 154° (SO) 0,0l/m² 0,000klx 0,0min
03:55 12,0°C 88,8% 10,2°C 1023,3hPa 12,0°C 0,0km/h (0Bft) 0,0km/h - 0,0l/m² 0,000klx 0,0min
03:50 12,0°C 88,4% 10,2°C 1023,3hPa 12,0°C 2,9km/h (1Bft) 1,2km/h 207° (SW) 0,0l/m² 0,000klx 0,0min
03:45 12,1°C 87,9% 10,1°C 1023,3hPa 12,1°C 1,4km/h (0Bft) 1,0km/h 238° (SW) 0,0l/m² 0,000klx 0,0min
03:40 12,2°C 87,7% 10,2°C 1023,4hPa 12,2°C 1,4km/h (0Bft) 1,0km/h 236° (SW) 0,0l/m² 0,000klx 0,0min
03:35 12,2°C 87,4% 10,2°C 1023,4hPa 12,2°C 1,1km/h (0Bft) 1,1km/h 155° (SO) 0,0l/m² 0,000klx 0,0min
03:30 12,2°C 87,0% 10,1°C 1023,4hPa 12,2°C 0,7km/h (0Bft) 0,7km/h 223° (SW) 0,0l/m² 0,000klx 0,0min
03:25 12,2°C 86,7% 10,0°C 1023,4hPa 12,2°C 2,9km/h (1Bft) 1,7km/h 154° (SO) 0,0l/m² 0,000klx 0,0min
03:20 12,2°C 86,8% 10,0°C 1023,4hPa 12,2°C 1,4km/h (0Bft) 0,9km/h 233° (SW) 0,0l/m² 0,000klx 0,0min
03:15 12,3°C 86,4% 10,1°C 1023,4hPa 12,3°C 1,8km/h (0Bft) 1,0km/h 254° (W) 0,0l/m² 0,000klx 0,0min
03:10 12,4°C 86,4% 10,2°C 1023,3hPa 12,4°C 1,1km/h (0Bft) 0,8km/h 214° (SW) 0,0l/m² 0,000klx 0,0min
03:05 12,6°C 85,7% 10,2°C 1023,3hPa 12,6°C 1,1km/h (0Bft) 0,8km/h 230° (SW) 0,0l/m² 0,000klx 0,0min
03:00 12,6°C 85,2% 10,2°C 1023,3hPa 12,6°C 0,0km/h (0Bft) 0,0km/h - 0,0l/m² 0,000klx 0,0min
02:55 12,8°C 84,6% 10,3°C 1023,3hPa 12,8°C 0,0km/h (0Bft) 0,0km/h - 0,0l/m² 0,000klx 0,0min
02:50 12,9°C 83,7% 10,2°C 1023,3hPa 12,9°C 0,0km/h (0Bft) 0,0km/h - 0,0l/m² 0,000klx 0,0min
02:45 12,9°C 83,6% 10,2°C 1023,3hPa 12,9°C 0,0km/h (0Bft) 0,0km/h - 0,0l/m² 0,000klx 0,0min
02:40 13,0°C 83,3% 10,2°C 1023,3hPa 13,0°C 0,0km/h (0Bft) 0,0km/h - 0,0l/m² 0,000klx 0,0min
02:35 13,1°C 83,4% 10,3°C 1023,4hPa 13,1°C 1,4km/h (0Bft) 1,1km/h 280° (W) 0,0l/m² 0,000klx 0,0min
02:30 13,2°C 82,5% 10,2°C 1023,3hPa 13,2°C 1,8km/h (0Bft) 1,0km/h 236° (SW) 0,0l/m² 0,000klx 0,0min
02:25 13,2°C 82,7% 10,3°C 1023,3hPa 13,2°C 3,2km/h (1Bft) 1,6km/h 158° (S) 0,0l/m² 0,000klx 0,0min
02:20 13,1°C 83,0% 10,3°C 1023,3hPa 13,1°C 2,5km/h (1Bft) 1,4km/h 185° (S) 0,0l/m² 0,000klx 0,0min
02:15 13,2°C 82,5% 10,3°C 1023,3hPa 13,2°C 2,5km/h (1Bft) 1,2km/h 224° (SW) 0,0l/m² 0,000klx 0,0min
02:10 13,2°C 82,1% 10,3°C 1023,3hPa 13,2°C 1,1km/h (0Bft) 0,8km/h 141° (SO) 0,0l/m² 0,000klx 0,0min
02:05 13,3°C 81,4% 10,2°C 1023,3hPa 13,3°C 1,1km/h (0Bft) 1,0km/h 247° (SW) 0,0l/m² 0,000klx 0,0min
02:00 13,4°C 81,1% 10,2°C 1023,4hPa 13,4°C 5,0km/h (1Bft) 2,2km/h 179° (S) 0,0l/m² 0,000klx 0,0min
01:55 13,5°C 81,9% 10,5°C 1023,4hPa 13,5°C 3,2km/h (1Bft) 1,5km/h 218° (SW) 0,0l/m² 0,000klx 0,0min
01:50 13,6°C 80,9% 10,4°C 1023,4hPa 13,6°C 0,0km/h (0Bft) 0,0km/h - 0,0l/m² 0,000klx 0,0min
01:45 13,7°C 80,5% 10,4°C 1023,4hPa 13,7°C 0,0km/h (0Bft) 0,0km/h - 0,0l/m² 0,000klx 0,0min
01:40 13,8°C 80,1% 10,4°C 1023,4hPa 13,8°C 2,5km/h (1Bft) 1,0km/h 238° (SW) 0,0l/m² 0,000klx 0,0min
01:35 13,9°C 79,2% 10,3°C 1023,4hPa 13,9°C 1,8km/h (0Bft) 1,0km/h 240° (SW) 0,0l/m² 0,000klx 0,0min
01:30 13,9°C 78,6% 10,3°C 1023,4hPa 13,9°C 0,0km/h (0Bft) 0,0km/h - 0,0l/m² 0,000klx 0,0min
01:25 13,9°C 78,6% 10,3°C 1023,3hPa 13,9°C 1,1km/h (0Bft) 0,8km/h 235° (SW) 0,0l/m² 0,000klx 0,0min
01:20 13,9°C 78,9% 10,3°C 1023,4hPa 13,9°C 0,0km/h (0Bft) 0,0km/h - 0,0l/m² 0,000klx 0,0min
01:15 13,9°C 79,2% 10,4°C 1023,3hPa 13,9°C 1,4km/h (0Bft) 1,2km/h 246° (SW) 0,0l/m² 0,000klx 0,0min
01:10 14,1°C 78,8% 10,5°C 1023,3hPa 14,1°C 2,5km/h (1Bft) 1,1km/h 234° (SW) 0,0l/m² 0,000klx 0,0min
01:05 14,4°C 78,9% 10,7°C 1023,3hPa 14,4°C 2,5km/h (1Bft) 1,2km/h 233° (SW) 0,0l/m² 0,000klx 0,0min
01:00 14,5°C 77,7% 10,7°C 1023,2hPa 14,5°C 0,0km/h (0Bft) 0,0km/h - 0,0l/m² 0,000klx 0,0min
00:55 14,6°C 77,2% 10,6°C 1023,2hPa 14,6°C 1,1km/h (0Bft) 0,9km/h 11° (N) 0,0l/m² 0,000klx 0,0min
00:50 14,6°C 76,7% 10,6°C 1023,2hPa 14,6°C 0,0km/h (0Bft) 0,0km/h - 0,0l/m² 0,000klx 0,0min
00:45 14,7°C 76,0% 10,5°C 1023,2hPa 14,7°C 0,0km/h (0Bft) 0,0km/h - 0,0l/m² 0,000klx 0,0min
00:40 14,8°C 75,3% 10,5°C 1023,2hPa 14,8°C 0,0km/h (0Bft) 0,0km/h - 0,0l/m² 0,000klx 0,0min
00:35 15,0°C 74,7% 10,5°C 1023,2hPa 15,0°C 0,0km/h (0Bft) 0,0km/h - 0,0l/m² 0,000klx 0,0min
00:30 15,0°C 74,4% 10,5°C 1023,2hPa 15,0°C 0,7km/h (0Bft) 0,7km/h 42° (NO) 0,0l/m² 0,000klx 0,0min
00:25 15,1°C 73,7% 10,5°C 1023,2hPa 15,1°C 0,0km/h (0Bft) 0,0km/h - 0,0l/m² 0,000klx 0,0min
00:20 15,2°C 74,0% 10,5°C 1023,2hPa 15,2°C 0,0km/h (0Bft) 0,0km/h - 0,0l/m² 0,000klx 0,0min
00:15 15,3°C 73,6% 10,6°C 1023,2hPa 15,3°C 1,1km/h (0Bft) 0,8km/h 230° (SW) 0,0l/m² 0,000klx 0,0min
00:10 15,4°C 73,1% 10,6°C 1023,1hPa 15,4°C 0,0km/h (0Bft) 0,0km/h - 0,0l/m² 0,000klx 0,0min
00:05 15,5°C 73,3% 10,7°C 1023,1hPa 15,5°C 1,1km/h (0Bft) 0,9km/h 167° (S) 0,0l/m² 0,000klx 0,0min
00:00 15,7°C 72,4% 10,7°C 1023,0hPa 15,7°C 1,4km/h (0Bft) 1,0km/h 229° (SW) 0,0l/m² 0,000klx 0,0min

Aktuelle Wetterdaten

08.08.2022 12:10 Uhr